createdAt,value
2019-03-17T00:00:46.477Z,9.69
2019-03-17T00:03:48.416Z,9.71
2019-03-17T00:06:50.372Z,9.69
2019-03-17T00:09:52.281Z,9.71
2019-03-17T00:12:54.227Z,9.75
2019-03-17T00:15:56.079Z,9.78
2019-03-17T00:18:58.343Z,9.77
2019-03-17T00:22:00.286Z,9.80
2019-03-17T00:25:09.320Z,9.83
2019-03-17T00:28:06.215Z,9.83
2019-03-17T00:31:08.119Z,9.82
2019-03-17T00:34:10.191Z,9.77
2019-03-17T00:37:12.135Z,9.74
2019-03-17T00:40:14.163Z,9.76
2019-03-17T00:43:16.071Z,9.79
2019-03-17T00:46:17.991Z,9.80
2019-03-17T00:49:19.989Z,9.82
2019-03-17T00:52:21.925Z,9.86
2019-03-17T00:55:23.846Z,9.86
2019-03-17T00:58:25.791Z,9.87
2019-03-17T01:01:27.719Z,9.82
2019-03-17T01:04:32.518Z,9.83
2019-03-17T01:07:34.440Z,9.82
2019-03-17T01:10:36.370Z,9.80
2019-03-17T01:13:38.332Z,9.82
2019-03-17T01:16:40.260Z,9.82
2019-03-17T01:19:42.406Z,9.80
2019-03-17T01:22:44.368Z,9.80
2019-03-17T01:25:46.317Z,9.79
2019-03-17T01:28:48.257Z,9.82
2019-03-17T01:31:50.153Z,9.85
2019-03-17T01:34:52.713Z,9.85
2019-03-17T01:37:54.632Z,9.88
2019-03-17T01:40:56.638Z,9.88
2019-03-17T01:43:58.604Z,9.91
2019-03-17T01:47:00.589Z,9.91
2019-03-17T01:50:03.246Z,9.87
2019-03-17T01:53:05.161Z,9.90
2019-03-17T01:56:07.097Z,9.96
2019-03-17T01:59:09.043Z,9.94
2019-03-17T02:02:11.022Z,9.94
2019-03-17T02:05:22.027Z,9.94
2019-03-17T02:08:16.984Z,9.97
2019-03-17T02:11:18.920Z,9.97
2019-03-17T02:14:22.091Z,10.01
2019-03-17T02:17:24.113Z,9.98
2019-03-17T02:20:26.149Z,10.01
2019-03-17T02:23:28.237Z,9.98
2019-03-17T02:26:30.165Z,9.94
2019-03-17T02:29:32.057Z,9.96
2019-03-17T02:32:34.101Z,10.01
2019-03-17T02:35:39.644Z,10.02
2019-03-17T02:38:40.663Z,10.01
2019-03-17T02:41:42.642Z,9.96
2019-03-17T02:44:44.600Z,9.84
2019-03-17T02:47:46.516Z,9.73
2019-03-17T02:50:48.544Z,9.64
2019-03-17T02:53:50.442Z,9.61
2019-03-17T02:56:52.399Z,9.63
2019-03-17T02:59:54.342Z,9.64
2019-03-17T03:02:57.680Z,9.60
2019-03-17T03:05:59.578Z,9.59
2019-03-17T03:09:01.505Z,9.56
2019-03-17T03:12:03.594Z,9.49
2019-03-17T03:15:07.532Z,9.39
2019-03-17T03:18:09.413Z,9.28
2019-03-17T03:21:12.513Z,9.17
2019-03-17T03:24:14.664Z,9.03
2019-03-17T03:27:16.646Z,8.87
2019-03-17T03:30:18.625Z,8.73
2019-03-17T03:33:20.554Z,8.61
2019-03-17T03:36:24.071Z,8.47
2019-03-17T03:39:25.989Z,8.33
2019-03-17T03:42:27.952Z,8.22
2019-03-17T03:45:29.901Z,8.13
2019-03-17T03:48:31.807Z,8.04
2019-03-17T03:51:33.837Z,7.99
2019-03-17T03:54:35.707Z,7.93
2019-03-17T03:57:37.659Z,7.91
2019-03-17T04:00:39.589Z,7.89
2019-03-17T04:03:41.600Z,7.82
2019-03-17T04:06:43.598Z,7.74
2019-03-17T04:09:45.507Z,7.69
2019-03-17T04:12:47.568Z,7.70
2019-03-17T04:15:49.549Z,7.72
2019-03-17T04:18:51.544Z,7.72
2019-03-17T04:21:53.589Z,7.66
2019-03-17T04:24:55.553Z,7.63
2019-03-17T04:27:57.525Z,7.59
2019-03-17T04:30:59.435Z,7.56
2019-03-17T04:34:01.474Z,7.50
2019-03-17T04:37:04.238Z,7.40
2019-03-17T04:40:07.823Z,7.35
2019-03-17T04:43:09.758Z,7.29
2019-03-17T04:46:11.719Z,7.23
2019-03-17T04:49:13.625Z,7.16
2019-03-17T04:52:15.739Z,7.09
2019-03-17T04:55:17.666Z,7.08
2019-03-17T04:58:19.594Z,7.07
2019-03-17T05:01:21.506Z,7.08
2019-03-17T05:04:23.561Z,7.08
2019-03-17T05:07:25.472Z,7.05
2019-03-17T05:10:28.022Z,7.03
2019-03-17T05:13:30.030Z,7.06
2019-03-17T05:16:35.647Z,7.09
2019-03-17T05:19:36.988Z,7.60
2019-03-17T05:22:39.061Z,8.41
2019-03-17T05:25:41.067Z,9.39
2019-03-17T05:28:43.038Z,10.16
2019-03-17T05:31:45.071Z,10.84
2019-03-17T05:34:46.993Z,11.45
2019-03-17T05:37:49.709Z,12.38
2019-03-17T05:40:51.641Z,12.62
2019-03-17T05:43:53.625Z,13.31
2019-03-17T05:46:55.638Z,13.66
2019-03-17T05:49:57.579Z,12.96
2019-03-17T05:52:59.688Z,12.83
2019-03-17T05:56:01.580Z,12.82
2019-03-17T05:59:03.499Z,12.24
2019-03-17T06:02:05.430Z,11.70
2019-03-17T06:05:07.698Z,11.39
2019-03-17T06:08:09.579Z,11.30
2019-03-17T06:11:11.570Z,11.34
2019-03-17T06:14:13.500Z,11.54
2019-03-17T06:17:15.421Z,12.05
2019-03-17T06:20:17.385Z,12.72
2019-03-17T06:23:19.539Z,12.69
2019-03-17T06:26:22.542Z,12.37
2019-03-17T06:29:24.552Z,12.43
2019-03-17T06:32:26.469Z,12.53
2019-03-17T06:35:28.390Z,12.44
2019-03-17T06:38:30.582Z,12.48
2019-03-17T06:41:32.515Z,12.56
2019-03-17T06:44:34.480Z,12.75
2019-03-17T06:47:36.423Z,13.18
2019-03-17T06:50:39.489Z,13.78
2019-03-17T06:53:41.473Z,14.83
2019-03-17T06:56:43.440Z,15.47
2019-03-17T06:59:45.422Z,15.65
2019-03-17T07:02:47.396Z,15.60
2019-03-17T07:05:49.429Z,15.56
2019-03-17T07:08:51.342Z,15.37
2019-03-17T07:11:53.339Z,15.40
2019-03-17T07:14:55.324Z,15.34
2019-03-17T07:17:57.280Z,15.95
2019-03-17T07:21:00.296Z,16.59
2019-03-17T07:24:02.394Z,16.89
2019-03-17T07:27:04.355Z,16.72
2019-03-17T07:30:09.925Z,16.47
2019-03-17T07:33:11.914Z,16.26
2019-03-17T07:36:13.880Z,16.11
2019-03-17T07:39:16.230Z,16.06
2019-03-17T07:42:18.145Z,16.01
2019-03-17T07:45:20.086Z,16.11
2019-03-17T07:48:21.999Z,16.39
2019-03-17T07:51:24.062Z,16.77
2019-03-17T07:54:26.026Z,17.38
2019-03-17T07:57:28.070Z,17.79
2019-03-17T08:00:32.149Z,17.86
2019-03-17T08:03:33.969Z,18.24
2019-03-17T08:06:35.881Z,18.28
2019-03-17T08:09:37.887Z,18.08
2019-03-17T08:12:39.834Z,17.95
2019-03-17T08:15:41.827Z,17.55
2019-03-17T08:18:43.827Z,17.33
2019-03-17T08:21:45.830Z,17.13
2019-03-17T08:24:47.942Z,17.00
2019-03-17T08:27:49.971Z,16.84
2019-03-17T08:30:53.356Z,16.53
2019-03-17T08:33:55.752Z,16.25
2019-03-17T08:36:57.744Z,16.02
2019-03-17T08:39:59.699Z,15.85
2019-03-17T08:43:01.663Z,15.77
2019-03-17T08:46:04.023Z,15.63
2019-03-17T08:49:05.950Z,15.45
2019-03-17T08:52:07.915Z,15.40
2019-03-17T08:55:10.514Z,15.46
2019-03-17T08:58:13.623Z,15.45
2019-03-17T09:01:15.630Z,15.56
2019-03-17T09:04:17.528Z,15.60
2019-03-17T09:07:19.535Z,15.58
2019-03-17T09:10:21.494Z,15.63
2019-03-17T09:13:23.447Z,15.68
2019-03-17T09:16:25.399Z,15.70
2019-03-17T09:19:27.307Z,15.67
2019-03-17T09:22:29.363Z,15.71
2019-03-17T09:25:31.474Z,15.69
2019-03-17T09:28:33.408Z,15.68
2019-03-17T09:31:35.399Z,15.76
2019-03-17T09:34:37.309Z,15.86
2019-03-17T09:37:39.320Z,15.89
2019-03-17T09:40:41.297Z,15.95
2019-03-17T09:43:43.345Z,16.06
2019-03-17T09:46:45.366Z,16.18
2019-03-17T09:49:47.301Z,16.35
2019-03-17T09:52:49.309Z,16.42
2019-03-17T09:55:51.281Z,16.44
2019-03-17T09:58:53.304Z,16.48
2019-03-17T10:01:55.234Z,16.49
2019-03-17T10:04:57.329Z,16.50
2019-03-17T10:07:59.321Z,16.53
2019-03-17T10:11:01.207Z,16.59
2019-03-17T10:14:03.327Z,16.68
2019-03-17T10:17:05.261Z,16.77
2019-03-17T10:20:13.221Z,16.84
2019-03-17T10:23:15.241Z,16.90
2019-03-17T10:26:17.356Z,16.92
2019-03-17T10:29:20.541Z,16.93
2019-03-17T10:32:22.432Z,16.98
2019-03-17T10:35:24.438Z,17.15
2019-03-17T10:38:26.403Z,17.37
2019-03-17T10:41:28.453Z,17.56
2019-03-17T10:44:30.464Z,17.81
2019-03-17T10:47:32.631Z,18.08
2019-03-17T10:50:34.561Z,18.36
2019-03-17T10:53:36.523Z,18.63
2019-03-17T10:56:38.604Z,18.87
2019-03-17T10:59:40.605Z,19.00
2019-03-17T11:02:42.575Z,19.14
2019-03-17T11:05:44.531Z,19.28
2019-03-17T11:08:46.483Z,19.42
2019-03-17T11:11:51.692Z,19.49
2019-03-17T11:14:54.934Z,19.52
2019-03-17T11:17:56.943Z,19.55
2019-03-17T11:20:58.936Z,19.54
2019-03-17T11:24:00.839Z,19.42
2019-03-17T11:27:03.099Z,19.28
2019-03-17T11:30:13.574Z,19.41
2019-03-17T11:33:15.532Z,19.65
2019-03-17T11:36:17.415Z,19.75
2019-03-17T11:39:19.393Z,19.82
2019-03-17T11:42:21.318Z,19.83
2019-03-17T11:45:25.119Z,19.70
2019-03-17T11:48:27.064Z,19.63
2019-03-17T11:51:29.004Z,19.49
2019-03-17T11:54:30.997Z,19.40
2019-03-17T11:57:33.046Z,19.30
2019-03-17T12:00:34.999Z,19.40
2019-03-17T12:03:36.948Z,19.54
2019-03-17T12:06:38.877Z,19.66
2019-03-17T12:09:49.537Z,19.83
2019-03-17T12:12:44.762Z,19.88
2019-03-17T12:15:46.699Z,19.89
2019-03-17T12:18:49.692Z,19.85
2019-03-17T12:21:51.634Z,19.81
2019-03-17T12:24:53.708Z,19.67
2019-03-17T12:27:55.803Z,19.58
2019-03-17T12:30:57.844Z,19.47
2019-03-17T12:33:59.872Z,19.38
2019-03-17T12:37:01.773Z,19.31
2019-03-17T12:40:03.815Z,19.29
2019-03-17T12:43:05.739Z,19.34
2019-03-17T12:46:07.725Z,19.41
2019-03-17T12:49:09.789Z,19.47
2019-03-17T12:52:11.769Z,19.51
2019-03-17T12:55:13.838Z,19.60
2019-03-17T12:58:15.807Z,19.58
2019-03-17T13:01:17.792Z,19.66
2019-03-17T13:04:19.726Z,19.64
2019-03-17T13:07:21.622Z,19.59
2019-03-17T13:10:23.586Z,19.70
2019-03-17T13:13:26.847Z,19.73
2019-03-17T13:16:28.785Z,19.75
2019-03-17T13:19:30.723Z,19.77
2019-03-17T13:22:32.863Z,19.74
2019-03-17T13:25:34.832Z,19.64
2019-03-17T13:28:37.081Z,19.72
2019-03-17T13:31:38.999Z,19.75
2019-03-17T13:34:41.015Z,19.77
2019-03-17T13:37:43.555Z,19.85
2019-03-17T13:40:45.473Z,19.83
2019-03-17T13:43:47.505Z,19.76
2019-03-17T13:46:49.571Z,19.64
2019-03-17T13:49:51.556Z,19.62
2019-03-17T13:52:53.557Z,19.59
2019-03-17T13:55:55.513Z,19.63
2019-03-17T13:58:57.584Z,19.68
2019-03-17T14:01:59.585Z,19.72
2019-03-17T14:05:01.485Z,19.71
2019-03-17T14:08:03.458Z,19.66
2019-03-17T14:11:05.381Z,19.58
2019-03-17T14:14:07.440Z,19.48
2019-03-17T14:17:09.372Z,19.47
2019-03-17T14:20:16.618Z,19.49
2019-03-17T14:23:18.595Z,19.52
2019-03-17T14:26:20.567Z,19.42
2019-03-17T14:29:22.654Z,19.40
2019-03-17T14:32:24.555Z,19.37
2019-03-17T14:35:26.513Z,19.29
2019-03-17T14:38:28.564Z,19.26
2019-03-17T14:41:30.493Z,19.31
2019-03-17T14:44:32.473Z,19.31
2019-03-17T14:47:34.439Z,19.35
2019-03-17T14:50:36.393Z,19.39
2019-03-17T14:53:38.319Z,19.39
2019-03-17T14:56:41.531Z,19.36
2019-03-17T14:59:44.822Z,19.36
2019-03-17T15:02:47.179Z,19.35
2019-03-17T15:05:49.160Z,19.35
2019-03-17T15:08:51.259Z,19.30
2019-03-17T15:11:53.195Z,19.25
2019-03-17T15:14:55.146Z,19.16
2019-03-17T15:17:57.054Z,19.09
2019-03-17T15:20:59.016Z,19.05
2019-03-17T15:24:01.026Z,19.02
2019-03-17T15:27:02.913Z,19.00
2019-03-17T15:30:11.490Z,19.02
2019-03-17T15:33:13.487Z,19.03
2019-03-17T15:36:15.481Z,19.02
2019-03-17T15:39:17.413Z,19.00
2019-03-17T15:42:19.688Z,18.90
2019-03-17T15:45:24.157Z,18.86
2019-03-17T15:48:26.122Z,18.79
2019-03-17T15:51:28.275Z,18.70
2019-03-17T15:54:30.633Z,18.64
2019-03-17T15:57:32.634Z,18.58
2019-03-17T16:00:34.915Z,18.51
2019-03-17T16:03:36.918Z,18.48
2019-03-17T16:06:39.065Z,18.40
2019-03-17T16:09:41.053Z,18.32
2019-03-17T16:12:43.000Z,18.22
2019-03-17T16:15:44.928Z,18.14
2019-03-17T16:18:46.932Z,18.00
2019-03-17T16:21:49.071Z,17.85
2019-03-17T16:24:51.174Z,17.70
2019-03-17T16:27:53.091Z,17.54
2019-03-17T16:30:55.241Z,17.31
2019-03-17T16:33:57.153Z,17.14
2019-03-17T16:36:59.243Z,16.94
2019-03-17T16:40:02.259Z,16.75
2019-03-17T16:43:04.784Z,16.62
2019-03-17T16:46:06.817Z,16.51
2019-03-17T16:49:09.086Z,16.42
2019-03-17T16:52:11.518Z,16.35
2019-03-17T16:55:15.844Z,16.16
2019-03-17T16:58:17.861Z,15.95
2019-03-17T17:01:20.269Z,15.83
2019-03-17T17:04:22.579Z,15.72
2019-03-17T17:07:24.558Z,15.82
2019-03-17T17:10:27.643Z,15.86
2019-03-17T17:13:29.972Z,15.84
2019-03-17T17:16:32.639Z,15.76
2019-03-17T17:19:34.634Z,15.66
2019-03-17T17:22:37.040Z,15.50
2019-03-17T17:25:40.070Z,15.35
2019-03-17T17:28:45.593Z,15.28
2019-03-17T17:31:48.249Z,15.28
2019-03-17T17:34:50.188Z,15.28
2019-03-17T17:37:52.852Z,15.25
2019-03-17T17:40:55.331Z,15.22
2019-03-17T17:43:57.333Z,15.23
2019-03-17T17:47:01.322Z,15.22
2019-03-17T17:50:09.253Z,15.21
2019-03-17T17:53:11.209Z,15.18
2019-03-17T17:56:13.187Z,15.10
2019-03-17T17:59:16.909Z,15.00
2019-03-17T18:02:19.415Z,14.94
2019-03-17T18:05:25.355Z,14.91
2019-03-17T18:08:29.342Z,14.90
2019-03-17T18:11:31.274Z,14.86
2019-03-17T18:14:37.530Z,14.86
2019-03-17T18:17:40.235Z,14.83
2019-03-17T18:20:42.454Z,14.80
2019-03-17T18:23:45.075Z,14.84
2019-03-17T18:26:47.186Z,14.83
2019-03-17T18:29:50.418Z,14.74
2019-03-17T18:32:52.702Z,14.71
2019-03-17T18:35:56.607Z,14.68
2019-03-17T18:38:58.975Z,14.58
2019-03-17T18:42:01.365Z,14.55
2019-03-17T18:45:07.010Z,14.49
2019-03-17T18:48:09.525Z,14.28
2019-03-17T18:51:14.674Z,13.89
2019-03-17T18:54:20.150Z,13.45
2019-03-17T18:57:24.991Z,12.91
2019-03-17T19:00:27.088Z,12.50
2019-03-17T19:03:32.749Z,12.20
2019-03-17T19:06:36.473Z,11.99
2019-03-17T19:09:39.225Z,11.78
2019-03-17T19:12:45.868Z,11.56
2019-03-17T19:15:51.187Z,11.39
2019-03-17T19:18:53.676Z,11.14
2019-03-17T19:21:56.554Z,10.84
2019-03-17T19:25:00.544Z,10.70
2019-03-17T19:28:10.244Z,10.62
2019-03-17T19:31:12.906Z,10.62
2019-03-17T19:34:17.073Z,10.49
2019-03-17T19:37:19.195Z,10.25
2019-03-17T19:40:25.298Z,10.12
2019-03-17T19:43:27.633Z,9.97
2019-03-17T19:46:31.011Z,9.93
2019-03-17T19:49:33.126Z,9.81
2019-03-17T19:52:36.639Z,9.74
2019-03-17T19:55:39.040Z,9.63
2019-03-17T19:58:41.159Z,9.57
2019-03-17T20:01:43.302Z,9.50
2019-03-17T20:04:45.327Z,9.44
2019-03-17T20:07:47.405Z,9.38
2019-03-17T20:10:52.929Z,9.30
2019-03-17T20:13:55.037Z,9.20
2019-03-17T20:17:01.413Z,9.13
2019-03-17T20:20:10.032Z,9.08
2019-03-17T20:23:14.704Z,9.14
2019-03-17T20:26:21.840Z,9.13
2019-03-17T20:29:28.737Z,9.15
2019-03-17T20:32:30.257Z,9.07
2019-03-17T20:35:32.837Z,9.10
2019-03-17T20:38:38.662Z,9.08
2019-03-17T20:41:40.664Z,9.12
2019-03-17T20:44:43.089Z,9.11
2019-03-17T20:47:45.039Z,9.14
2019-03-17T20:50:47.120Z,9.08
2019-03-17T20:53:49.026Z,9.02
2019-03-17T20:56:51.169Z,8.89
2019-03-17T20:59:53.157Z,8.78
2019-03-17T21:02:55.289Z,8.70
2019-03-17T21:05:57.313Z,8.66
2019-03-17T21:09:01.403Z,8.65
2019-03-17T21:12:06.121Z,8.65
2019-03-17T21:15:11.200Z,8.59
2019-03-17T21:18:13.143Z,8.46
2019-03-17T21:21:15.428Z,8.40
2019-03-17T21:24:17.377Z,8.25
2019-03-17T21:27:19.365Z,8.19
2019-03-17T21:30:23.354Z,8.12
2019-03-17T21:33:25.350Z,8.09
2019-03-17T21:36:27.528Z,8.02
2019-03-17T21:39:29.597Z,8.03
2019-03-17T21:42:31.588Z,8.04
2019-03-17T21:45:33.708Z,8.07
2019-03-17T21:48:35.649Z,8.06
2019-03-17T21:51:37.628Z,8.07
2019-03-17T21:54:39.623Z,8.08
2019-03-17T21:57:41.495Z,8.07
2019-03-17T22:00:43.428Z,8.11
2019-03-17T22:03:45.386Z,8.10
2019-03-17T22:06:47.404Z,8.07
2019-03-17T22:09:49.374Z,8.07
2019-03-17T22:12:51.340Z,8.06
2019-03-17T22:15:53.389Z,8.06
2019-03-17T22:18:55.284Z,8.02
2019-03-17T22:21:58.664Z,8.00
2019-03-17T22:25:00.560Z,7.95
2019-03-17T22:28:08.111Z,7.96
2019-03-17T22:31:06.302Z,7.97
2019-03-17T22:34:08.410Z,7.96
2019-03-17T22:37:10.480Z,7.95
2019-03-17T22:40:17.763Z,7.99
2019-03-17T22:43:19.658Z,7.98
2019-03-17T22:46:21.588Z,7.98
2019-03-17T22:49:23.664Z,7.99
2019-03-17T22:52:25.592Z,7.99
2019-03-17T22:55:27.534Z,7.96
2019-03-17T22:58:29.421Z,7.92
2019-03-17T23:01:31.446Z,7.94
2019-03-17T23:04:33.387Z,7.86
2019-03-17T23:07:36.276Z,7.86
2019-03-17T23:10:38.222Z,7.85
2019-03-17T23:13:40.307Z,7.78
2019-03-17T23:16:42.273Z,7.77
2019-03-17T23:19:44.268Z,7.78
2019-03-17T23:22:46.210Z,7.76
2019-03-17T23:25:48.224Z,7.76
2019-03-17T23:28:50.228Z,7.75
2019-03-17T23:31:52.180Z,7.78
2019-03-17T23:34:54.206Z,7.76
2019-03-17T23:37:56.543Z,7.80
2019-03-17T23:40:58.944Z,7.79
2019-03-17T23:44:00.946Z,7.81
2019-03-17T23:47:03.043Z,7.81
2019-03-17T23:50:07.295Z,7.78
2019-03-17T23:53:09.346Z,7.81
2019-03-17T23:56:11.298Z,7.85
2019-03-17T23:59:13.294Z,7.87
